Andover, New Hampshire
Current Conditions -  °F | °C
As of 6:55 PM on Wednesday 22 Oct 2014 (Local Time) from KLCI Reporting Station
Overcast Overcast  
Wind Chill: 40°   Ceiling: 1300
Heat Index: 46°   Visibility: 7mi
Dew Point: 43°   Wind: 15mph
Humidity: 87%   Direction: 50°NE
Pressure: 30.02"   Gusts: 25mph
Location:  43.44°N, 71.82°W
Report Text: KLCI 222255Z AUTO 05013G22KT 7SM OVC013 08/06 A3002 RMK AO1 P0008
Loading
Personal Weather Stations






























Interactive Weather Map
Tropical Storm Tracking
New forecast layout! Learn more

10-Day Weather Forecast

Advertisements
Track Severe Weather on mobile